createdAt,value
2023-03-17T00:01:18.517Z,95221.00
2023-03-17T00:05:18.504Z,95228.00
2023-03-17T00:09:18.432Z,95215.00
2023-03-17T00:13:18.447Z,95221.00
2023-03-17T00:17:18.606Z,95207.00
2023-03-17T00:21:18.954Z,95201.00
2023-03-17T00:25:18.806Z,95201.00
2023-03-17T00:29:19.004Z,95199.00
2023-03-17T00:33:18.999Z,95203.00
2023-03-17T00:37:19.111Z,95191.00
2023-03-17T00:41:19.241Z,95189.00
2023-03-17T00:45:19.431Z,95185.00
2023-03-17T00:49:19.397Z,95168.00
2023-03-17T00:53:19.343Z,95168.00
2023-03-17T00:57:19.378Z,95172.00
2023-03-17T01:01:19.342Z,95166.00
2023-03-17T01:05:19.250Z,95172.00
2023-03-17T01:09:19.281Z,95164.00
2023-03-17T01:13:19.267Z,95170.00
2023-03-17T01:17:19.112Z,95178.00
2023-03-17T01:21:19.230Z,95174.00
2023-03-17T01:25:19.063Z,95176.00
2023-03-17T01:29:19.144Z,95176.00
2023-03-17T01:33:19.024Z,95174.00
2023-03-17T01:37:19.006Z,95170.00
2023-03-17T01:41:18.970Z,95176.00
2023-03-17T01:45:18.990Z,95158.00
2023-03-17T01:49:18.888Z,95172.00
2023-03-17T01:53:18.844Z,95166.00
2023-03-17T01:57:18.783Z,95162.00
2023-03-17T02:01:18.819Z,95150.00
2023-03-17T02:05:18.766Z,95140.00
2023-03-17T02:09:18.697Z,95140.00
2023-03-17T02:13:18.647Z,95131.00
2023-03-17T02:17:18.610Z,95135.00
2023-03-17T02:21:18.666Z,95127.00
2023-03-17T02:28:58.464Z,95135.00
2023-03-17T02:32:58.458Z,95138.00
2023-03-17T02:36:58.439Z,95136.00
2023-03-17T02:40:58.353Z,95125.00
2023-03-17T02:44:58.297Z,95131.00
2023-03-17T02:48:58.281Z,95129.00
2023-03-17T02:52:58.217Z,95111.00
2023-03-17T02:56:58.211Z,95131.00
2023-03-17T03:00:58.173Z,95117.00
2023-03-17T03:04:58.127Z,95123.00
2023-03-17T03:08:58.090Z,95115.00
2023-03-17T03:12:58.072Z,95115.00
2023-03-17T03:16:58.013Z,95133.00
2023-03-17T03:20:58.102Z,95117.00
2023-03-17T03:24:57.981Z,95129.00
2023-03-17T03:28:57.921Z,95125.00
2023-03-17T03:32:58.067Z,95135.00
2023-03-17T03:36:57.907Z,95127.00
2023-03-17T03:40:57.965Z,95115.00
2023-03-17T03:44:58.098Z,95127.00
2023-03-17T03:48:58.207Z,95142.00
2023-03-17T03:52:58.314Z,95136.00
2023-03-17T03:56:58.499Z,95127.00
2023-03-17T04:00:58.672Z,95127.00
2023-03-17T04:04:58.828Z,95119.00
2023-03-17T04:08:58.916Z,95119.00
2023-03-17T04:12:59.085Z,95133.00
2023-03-17T04:16:59.034Z,95123.00
2023-03-17T04:20:59.017Z,95111.00
2023-03-17T04:24:58.984Z,95115.00
2023-03-17T04:28:58.941Z,95117.00
2023-03-17T04:32:58.984Z,95105.00
2023-03-17T04:36:59.178Z,95101.00
2023-03-17T04:40:58.894Z,95109.00
2023-03-17T04:44:58.893Z,95093.00
2023-03-17T04:48:58.728Z,95097.00
2023-03-17T04:52:58.729Z,95089.00
2023-03-17T04:56:58.682Z,95093.00
2023-03-17T05:00:58.849Z,95101.00
2023-03-17T05:04:58.998Z,95087.00
2023-03-17T05:08:59.151Z,95095.00
2023-03-17T05:12:59.317Z,95093.00
2023-03-17T05:16:59.462Z,95101.00
2023-03-17T05:20:59.571Z,95105.00
2023-03-17T05:24:59.693Z,95099.00
2023-03-17T05:28:59.930Z,95099.00
2023-03-17T05:32:59.930Z,95101.00
2023-03-17T05:36:59.830Z,95097.00
2023-03-17T05:40:59.820Z,95103.00
2023-03-17T05:44:59.791Z,95099.00
2023-03-17T05:48:59.750Z,95099.00
2023-03-17T05:52:59.684Z,95099.00
2023-03-17T05:56:59.676Z,95103.00
2023-03-17T06:00:59.647Z,95089.00
2023-03-17T06:04:59.611Z,95093.00
2023-03-17T06:08:59.673Z,95091.00
2023-03-17T06:12:59.521Z,95095.00
2023-03-17T06:16:59.607Z,95101.00
2023-03-17T06:20:59.696Z,95093.00
2023-03-17T06:24:59.704Z,95091.00
2023-03-17T06:28:59.756Z,95095.00
2023-03-17T06:32:59.782Z,95087.00
2023-03-17T06:36:59.962Z,95097.00
2023-03-17T06:40:59.893Z,95099.00
2023-03-17T06:44:59.987Z,95089.00
2023-03-17T06:49:00.067Z,95083.00
2023-03-17T06:53:00.114Z,95080.00
2023-03-17T06:57:00.094Z,95080.00
2023-03-17T07:01:00.099Z,95081.00
2023-03-17T07:05:00.380Z,95078.00
2023-03-17T07:09:02.171Z,95080.00
2023-03-17T07:13:00.265Z,95080.00
2023-03-17T07:17:00.313Z,95072.00
2023-03-17T07:21:00.701Z,95080.00
2023-03-17T07:25:00.725Z,95070.00
2023-03-17T07:29:00.882Z,95064.00
2023-03-17T07:33:00.923Z,95083.00
2023-03-17T07:37:01.096Z,95076.00
2023-03-17T07:41:00.965Z,95074.00
2023-03-17T07:45:00.976Z,95074.00
2023-03-17T07:49:01.158Z,95068.00
2023-03-17T07:53:01.102Z,95056.00
2023-03-17T07:57:01.263Z,95054.00
2023-03-17T08:01:01.228Z,95054.00
2023-03-17T08:05:01.104Z,95052.00
2023-03-17T08:09:01.235Z,95046.00
2023-03-17T08:13:01.338Z,95042.00
2023-03-17T08:17:01.312Z,95046.00
2023-03-17T08:21:01.269Z,95034.00
2023-03-17T08:25:01.257Z,95033.00
2023-03-17T08:29:01.186Z,95021.00
2023-03-17T08:33:01.234Z,95021.00
2023-03-17T08:37:01.074Z,95019.00
2023-03-17T08:41:01.099Z,95007.00
2023-03-17T08:45:01.013Z,94991.00
2023-03-17T08:49:01.023Z,94997.00
2023-03-17T08:53:00.977Z,94978.00
2023-03-17T08:57:00.914Z,94982.00
2023-03-17T09:01:00.890Z,94974.00
2023-03-17T09:05:00.864Z,94970.00
2023-03-17T09:09:00.808Z,94966.00
2023-03-17T09:13:00.827Z,94958.00
2023-03-17T09:17:01.032Z,94935.00
2023-03-17T09:21:01.183Z,94937.00
2023-03-17T09:25:01.062Z,94921.00
2023-03-17T09:29:03.739Z,94911.00
2023-03-17T09:33:01.196Z,94911.00
2023-03-17T09:37:01.082Z,94903.00
2023-03-17T09:41:01.043Z,94909.00
2023-03-17T09:45:01.015Z,94905.00
2023-03-17T09:49:01.000Z,94907.00
2023-03-17T09:53:03.726Z,94905.00
2023-03-17T09:57:00.892Z,94901.00
2023-03-17T10:01:00.832Z,94887.00
2023-03-17T10:05:00.884Z,94882.00
2023-03-17T10:09:00.969Z,94876.00
2023-03-17T10:13:00.832Z,94866.00
2023-03-17T10:17:00.723Z,94862.00
2023-03-17T10:21:00.739Z,94868.00
2023-03-17T10:25:03.151Z,94839.00
2023-03-17T10:29:00.793Z,94839.00
2023-03-17T10:33:00.630Z,94839.00
2023-03-17T10:37:00.593Z,94829.00
2023-03-17T10:41:00.570Z,94817.00
2023-03-17T10:45:00.490Z,94813.00
2023-03-17T10:49:00.486Z,94803.00
2023-03-17T10:53:00.459Z,94797.00
2023-03-17T10:57:00.374Z,94782.00
2023-03-17T11:01:00.470Z,94772.00
2023-03-17T11:05:00.316Z,94770.00
2023-03-17T11:09:00.314Z,94774.00
2023-03-17T11:13:00.244Z,94766.00
2023-03-17T11:17:00.267Z,94756.00
2023-03-17T11:21:00.179Z,94743.00
2023-03-17T11:25:00.219Z,94737.00
2023-03-17T11:29:00.227Z,94741.00
2023-03-17T11:33:00.392Z,94737.00
2023-03-17T11:37:00.392Z,94723.00
2023-03-17T11:41:00.518Z,94711.00
2023-03-17T11:45:00.742Z,94699.00
2023-03-17T11:49:00.962Z,94715.00
2023-03-17T11:53:01.038Z,94715.00
2023-03-17T11:57:01.218Z,94670.00
2023-03-17T12:01:01.264Z,94678.00
2023-03-17T12:05:01.339Z,94668.00
2023-03-17T12:09:01.377Z,94678.00
2023-03-17T12:13:01.407Z,94662.00
2023-03-17T12:17:01.625Z,94646.00
2023-03-17T12:21:01.816Z,94656.00
2023-03-17T12:25:01.952Z,94623.00
2023-03-17T12:29:02.208Z,94631.00
2023-03-17T12:33:02.120Z,94635.00
2023-03-17T12:37:02.368Z,94629.00
2023-03-17T12:41:02.413Z,94621.00
2023-03-17T12:45:02.672Z,94609.00
2023-03-17T12:49:02.808Z,94609.00
2023-03-17T12:53:02.931Z,94598.00
2023-03-17T12:57:02.957Z,94599.00
2023-03-17T13:01:02.861Z,94603.00
2023-03-17T13:05:02.834Z,94582.00
2023-03-17T13:09:02.930Z,94568.00
2023-03-17T13:13:02.803Z,94578.00
2023-03-17T13:17:02.678Z,94566.00
2023-03-17T13:21:02.683Z,94570.00
2023-03-17T13:25:02.690Z,94576.00
2023-03-17T13:29:02.628Z,94541.00
2023-03-17T13:33:02.648Z,94545.00
2023-03-17T13:37:02.614Z,94549.00
2023-03-17T13:41:02.610Z,94545.00
2023-03-17T13:45:02.691Z,94541.00
2023-03-17T13:49:02.886Z,94531.00
2023-03-17T13:53:03.106Z,94533.00
2023-03-17T13:57:03.179Z,94521.00
2023-03-17T14:01:14.425Z,94513.00
2023-03-17T14:05:03.301Z,94511.00
2023-03-17T14:09:03.269Z,94507.00
2023-03-17T14:13:03.196Z,94511.00
2023-03-17T14:17:03.367Z,94505.00
2023-03-17T14:21:04.684Z,94502.00
2023-03-17T14:25:03.443Z,94502.00
2023-03-17T14:29:03.436Z,94498.00
2023-03-17T14:33:03.394Z,94500.00
2023-03-17T14:37:03.267Z,94498.00
2023-03-17T14:41:03.248Z,94492.00
2023-03-17T14:45:03.217Z,94502.00
2023-03-17T14:49:03.176Z,94492.00
2023-03-17T14:53:03.187Z,94490.00
2023-03-17T14:57:03.247Z,94476.00
2023-03-17T15:01:03.110Z,94482.00
2023-03-17T15:05:02.973Z,94486.00
2023-03-17T15:09:03.173Z,94478.00
2023-03-17T15:13:03.122Z,94478.00
2023-03-17T15:17:03.044Z,94474.00
2023-03-17T15:21:02.904Z,94482.00
2023-03-17T15:25:02.891Z,94478.00
2023-03-17T15:29:02.852Z,94474.00
2023-03-17T15:33:03.024Z,94464.00
2023-03-17T15:37:03.082Z,94466.00
2023-03-17T15:41:03.191Z,94478.00
2023-03-17T15:45:03.244Z,94464.00
2023-03-17T15:49:03.290Z,94466.00
2023-03-17T15:53:03.412Z,94466.00
2023-03-17T15:57:03.529Z,94466.00
2023-03-17T16:01:03.648Z,94456.00
2023-03-17T16:05:03.752Z,94462.00
2023-03-17T16:09:04.006Z,94468.00
2023-03-17T16:13:03.997Z,94464.00
2023-03-17T16:17:04.230Z,94460.00
2023-03-17T16:21:04.100Z,94468.00
2023-03-17T16:25:04.304Z,94462.00
2023-03-17T16:29:06.215Z,94464.00
2023-03-17T16:33:04.618Z,94468.00
2023-03-17T16:37:04.569Z,94472.00
2023-03-17T16:41:04.315Z,94496.00
2023-03-17T16:45:04.289Z,94505.00
2023-03-17T16:49:04.319Z,94507.00
2023-03-17T16:53:04.244Z,94505.00
2023-03-17T16:57:06.052Z,94523.00
2023-03-17T17:01:04.144Z,94527.00
2023-03-17T17:05:04.164Z,94531.00
2023-03-17T17:09:04.102Z,94545.00
2023-03-17T17:13:05.914Z,94535.00
2023-03-17T17:17:03.975Z,94539.00
2023-03-17T17:21:03.978Z,94537.00
2023-03-17T17:25:03.936Z,94541.00
2023-03-17T17:29:03.916Z,94535.00
2023-03-17T17:33:03.841Z,94543.00
2023-03-17T17:37:03.822Z,94541.00
2023-03-17T17:41:03.747Z,94539.00
2023-03-17T17:45:03.756Z,94529.00
2023-03-17T17:49:03.696Z,94547.00
2023-03-17T17:53:03.671Z,94556.00
2023-03-17T17:57:03.747Z,94545.00
2023-03-17T18:01:03.673Z,94551.00
2023-03-17T18:05:03.743Z,94545.00
2023-03-17T18:09:03.860Z,94549.00
2023-03-17T18:13:03.961Z,94549.00
2023-03-17T18:17:04.142Z,94549.00
2023-03-17T18:21:04.328Z,94547.00
2023-03-17T18:25:04.465Z,94541.00
2023-03-17T18:29:04.703Z,94552.00
2023-03-17T18:33:04.763Z,94564.00
2023-03-17T18:37:04.628Z,94576.00
2023-03-17T18:41:04.615Z,94592.00
2023-03-17T18:45:04.540Z,94588.00
2023-03-17T18:49:04.454Z,94588.00
2023-03-17T18:53:04.521Z,94582.00
2023-03-17T18:57:04.405Z,94572.00
2023-03-17T19:01:04.462Z,94594.00
2023-03-17T19:05:04.353Z,94590.00
2023-03-17T19:09:04.290Z,94570.00
2023-03-17T19:13:04.241Z,94592.00
2023-03-17T19:17:04.240Z,94596.00
2023-03-17T19:21:04.200Z,94601.00
2023-03-17T19:25:04.121Z,94601.00
2023-03-17T19:29:04.104Z,94601.00
2023-03-17T19:33:04.213Z,94601.00
2023-03-17T19:37:04.045Z,94603.00
2023-03-17T19:41:03.993Z,94603.00
2023-03-17T19:45:03.979Z,94601.00
2023-03-17T19:49:04.075Z,94609.00
2023-03-17T19:53:04.228Z,94601.00
2023-03-17T19:57:04.290Z,94627.00
2023-03-17T20:01:04.358Z,94615.00
2023-03-17T20:13:53.715Z,94619.00
2023-03-17T20:17:43.503Z,94625.00
2023-03-17T20:21:43.364Z,94607.00
2023-03-17T20:25:43.372Z,94603.00
2023-03-17T20:29:43.294Z,94627.00
2023-03-17T20:33:43.299Z,94631.00
2023-03-17T20:37:43.251Z,94633.00
2023-03-17T20:41:43.274Z,94623.00
2023-03-17T20:45:43.302Z,94633.00
2023-03-17T20:49:43.483Z,94627.00
2023-03-17T20:53:43.526Z,94637.00
2023-03-17T20:57:43.469Z,94635.00
2023-03-17T21:01:43.516Z,94633.00
2023-03-17T21:05:43.371Z,94635.00
2023-03-17T21:09:43.371Z,94637.00
2023-03-17T21:13:43.350Z,94637.00
2023-03-17T21:17:43.270Z,94662.00
2023-03-17T21:21:43.290Z,94646.00
2023-03-17T21:25:43.208Z,94646.00
2023-03-17T21:29:43.136Z,94662.00
2023-03-17T21:33:43.092Z,94654.00
2023-03-17T21:37:43.228Z,94688.00
2023-03-17T21:41:42.995Z,94682.00
2023-03-17T21:45:43.037Z,94684.00
2023-03-17T21:49:42.984Z,94690.00
2023-03-17T21:53:42.881Z,94684.00
2023-03-17T21:57:42.853Z,94688.00
2023-03-17T22:01:43.130Z,94699.00
2023-03-17T22:05:42.997Z,94703.00
2023-03-17T22:09:42.978Z,94705.00
2023-03-17T22:13:43.059Z,94715.00
2023-03-17T22:17:43.050Z,94715.00
2023-03-17T22:21:42.897Z,94719.00
2023-03-17T22:25:42.997Z,94723.00
2023-03-17T22:29:43.015Z,94721.00
2023-03-17T22:33:42.809Z,94723.00
2023-03-17T22:37:42.728Z,94727.00
2023-03-17T22:41:42.712Z,94725.00
2023-03-17T22:45:42.734Z,94721.00
2023-03-17T22:49:42.645Z,94725.00
2023-03-17T22:53:42.617Z,94729.00
2023-03-17T22:57:42.564Z,94729.00
2023-03-17T23:01:42.533Z,94733.00
2023-03-17T23:05:42.480Z,94745.00
2023-03-17T23:09:42.550Z,94746.00
2023-03-17T23:13:42.780Z,94756.00
2023-03-17T23:17:42.695Z,94754.00
2023-03-17T23:21:42.688Z,94748.00
2023-03-17T23:25:42.639Z,94756.00
2023-03-17T23:29:42.607Z,94762.00
2023-03-17T23:33:42.570Z,94770.00
2023-03-17T23:37:42.574Z,94780.00
2023-03-17T23:41:42.443Z,94776.00
2023-03-17T23:45:42.542Z,94774.00
2023-03-17T23:49:42.477Z,94780.00
2023-03-17T23:53:42.398Z,94780.00
2023-03-17T23:57:42.337Z,94788.00
